Time;durP1;ratioP1;P1;durP2;ratioP2;P2;SDS_P1;SDS_P2;PMS_P1;PMS_P2;Temp;Humidity;BMP_temperature;BMP_pressure;BME280_temperature;BME280_humidity;BME280_pressure;Samples;Min_cycle;Max_cycle;Signal;HPM_P1;HPM_P2
2023/12/31 00:02:10;;;;;;;;;;;7.10;99.90;;;6.16;100.00;97229.72;5021860;28;1432;-69
2023/12/31 00:04:37;;;;;;;;;;;7.10;99.90;;;6.21;100.00;97227.00;5019630;28;1436;-67
2023/12/31 00:07:04;;;;;;;;;;;7.10;99.90;;;6.10;100.00;97221.31;5020189;28;1910;-68
2023/12/31 00:09:31;;;;;;;;;;;7.00;99.90;;;6.00;100.00;97210.47;5018399;28;1427;-69
2023/12/31 00:11:58;;;;;;;;;;;7.00;99.90;;;5.98;100.00;97207.91;5020131;28;2087;-69
2023/12/31 00:14:25;;;;;;;;;;;;;;;6.01;100.00;97205.25;5021640;28;1407;-68
2023/12/31 00:16:52;;;;;;;;;;;6.90;99.90;;;6.05;100.00;97200.84;5020957;28;1337;-68
2023/12/31 00:19:19;;;;;;;;;;;6.90;99.90;;;5.96;100.00;97196.81;5021980;28;1316;-69
2023/12/31 00:21:46;;;;;;;;;;;6.90;99.90;;;5.88;100.00;97188.44;5021865;28;1387;-69
2023/12/31 00:24:14;;;;;;;;;;;6.80;99.90;;;5.86;100.00;97190.22;5017326;28;1447;-67
2023/12/31 00:26:40;;;;;;;;;;;6.70;99.90;;;5.84;100.00;97189.44;5020696;28;3072;-68
2023/12/31 00:29:07;;;;;;;;;;;6.70;99.90;;;5.71;100.00;97182.97;5021503;28;1610;-69
2023/12/31 00:31:34;;;;;;;;;;;6.60;99.90;;;5.50;100.00;97180.13;5019074;28;1500;-68
2023/12/31 00:34:01;;;;;;;;;;;6.50;99.90;;;5.57;100.00;97188.50;5018224;28;1497;-69
2023/12/31 00:36:29;;;;;;;;;;;6.40;99.90;;;5.40;100.00;97186.41;5014491;28;1555;-68
2023/12/31 00:38:56;;;;;;;;;;;6.40;99.90;;;5.41;100.00;97185.53;5016671;28;1445;-68
2023/12/31 00:41:23;;;;;;;;;;;6.30;99.90;;;5.36;100.00;97177.94;5021587;28;1907;-68
2023/12/31 00:43:50;;;;;;;;;;;6.30;99.90;;;5.40;100.00;97168.38;5019389;28;1379;-68
2023/12/31 00:46:16;;;;;;;;;;;6.30;99.90;;;5.45;100.00;97176.81;5018964;28;1898;-69
2023/12/31 00:48:43;;;;;;;;;;;6.20;99.90;;;5.37;100.00;97171.88;5034897;28;1372;-69
2023/12/31 00:51:10;;;;;;;;;;;6.20;99.90;;;5.21;100.00;97176.63;5021938;28;1486;-69
2023/12/31 00:53:39;;;;;;;;;;;6.20;99.90;;;5.32;100.00;97162.63;5021135;28;1786;-71
2023/12/31 00:56:08;;;;;;;;;;;6.20;99.90;;;5.30;100.00;97157.50;5020531;28;2095;-68
2023/12/31 00:58:35;;;;;;;;;;;6.20;99.90;;;5.38;100.00;97136.69;5021595;28;1495;-69
2023/12/31 01:01:02;;;;;;;;;;;6.10;99.90;;;5.57;100.00;97134.44;5019631;28;1273;-69
2023/12/31 01:03:30;;;;;;;;;;;6.20;99.90;;;5.70;100.00;97127.19;5016654;28;1372;-70
2023/12/31 01:06:06;;;;;;;;;;;6.30;99.90;;;5.47;100.00;97118.41;5017804;28;1532;-69
2023/12/31 01:08:34;;;;;;;;;;;6.20;99.90;;;5.20;100.00;97104.59;5017451;28;3138;-69
2023/12/31 01:11:01;;;;;;;;;;;6.20;99.90;;;5.35;100.00;97111.91;5017217;28;1056;-69
2023/12/31 01:13:28;;;;;;;;;;;6.10;99.90;;;5.40;100.00;97102.31;5020504;28;1472;-69
2023/12/31 01:15:55;;;;;;;;;;;6.10;99.90;;;5.33;100.00;97092.25;5022566;28;1435;-69
2023/12/31 01:18:22;;;;;;;;;;;6.00;99.90;;;5.48;100.00;97088.38;5020038;28;1463;-68
2023/12/31 01:20:48;;;;;;;;;;;6.10;99.90;;;5.52;100.00;97093.41;5014540;28;2067;-69
2023/12/31 01:23:15;;;;;;;;;;;6.20;99.90;;;5.58;100.00;97084.63;5019342;28;2312;-69
2023/12/31 01:25:42;;;;;;;;;;;6.20;99.90;;;5.47;100.00;97068.66;5016880;28;1440;-69
2023/12/31 01:28:09;;;;;;;;;;;6.10;99.90;;;5.55;100.00;97066.72;5017615;28;1910;-69
2023/12/31 01:30:36;;;;;;;;;;;6.10;99.90;;;5.42;100.00;97066.22;5020300;28;1477;-69
2023/12/31 01:33:03;;;;;;;;;;;6.10;99.90;;;5.41;100.00;97073.13;5021227;28;1515;-70
2023/12/31 01:35:31;;;;;;;;;;;6.10;99.90;;;5.28;100.00;97081.25;5021701;28;1592;-69
2023/12/31 01:37:58;;;;;;;;;;;6.10;99.90;;;5.22;100.00;97077.09;5016597;28;2023;-69
2023/12/31 01:40:25;;;;;;;;;;;6.00;99.90;;;5.13;100.00;97080.81;5013362;28;1487;-69
2023/12/31 01:42:51;;;;;;;;;;;6.00;99.90;;;5.06;100.00;97075.88;5020226;28;1619;-69
2023/12/31 01:45:18;;;;;;;;;;;6.00;99.90;;;5.02;100.00;97080.28;5004397;28;1495;-69
2023/12/31 01:47:45;;;;;;;;;;;6.00;99.90;;;5.09;100.00;97076.63;5017611;28;1903;-68
2023/12/31 01:50:13;;;;;;;;;;;6.00;99.90;;;5.18;100.00;97081.53;5018154;28;3010;-69
2023/12/31 01:52:41;;;;;;;;;;;6.00;99.90;;;5.49;100.00;97078.03;5017312;28;1631;-69
2023/12/31 01:55:08;;;;;;;;;;;6.10;99.90;;;5.66;100.00;97064.66;5017768;28;1438;-69
2023/12/31 01:57:37;;;;;;;;;;;6.20;99.90;;;5.73;100.00;97045.53;5032744;28;5060;-69
2023/12/31 02:00:06;;;;;;;;;;;6.30;99.90;;;5.99;100.00;97026.69;5018923;28;1714;-69
2023/12/31 02:02:33;;;;;;;;;;;6.50;99.90;;;6.13;100.00;97027.97;5015954;28;1434;-69
2023/12/31 02:05:00;;;;;;;;;;;6.60;99.90;;;6.06;100.00;97017.84;5017034;28;2059;-69
2023/12/31 02:07:28;;;;;;;;;;;6.60;99.90;;;6.11;100.00;97009.97;5016844;28;1965;-70
2023/12/31 02:09:55;;;;;;;;;;;6.60;99.90;;;5.97;100.00;96999.28;5019132;28;1312;-69
2023/12/31 02:12:22;;;;;;;;;;;6.60;99.90;;;6.05;100.00;97018.75;5018243;28;2057;-70
2023/12/31 02:14:49;;;;;;;;;;;6.70;99.90;;;5.92;100.00;97002.00;5015703;28;1516;-69
2023/12/31 02:17:16;;;;;;;;;;;6.60;99.90;;;5.80;100.00;97000.66;5019190;28;1156;-69
2023/12/31 02:19:43;;;;;;;;;;;6.50;99.90;;;5.96;100.00;96992.47;5020508;28;2253;-69
2023/12/31 02:22:10;;;;;;;;;;;6.60;99.90;;;5.89;100.00;96978.91;5016912;28;1434;-69
2023/12/31 02:24:45;;;;;;;;;;;6.60;99.90;;;5.84;100.00;96980.81;5017553;28;1371;-69
2023/12/31 02:27:11;;;;;;;;;;;6.60;99.90;;;5.88;100.00;96972.06;5034068;28;1906;-69
2023/12/31 02:29:38;;;;;;;;;;;6.60;99.90;;;5.80;100.00;96963.78;5017587;28;1394;-69
2023/12/31 02:32:05;;;;;;;;;;;6.60;99.90;;;5.90;100.00;96965.13;5020774;28;1406;-69
2023/12/31 02:34:32;;;;;;;;;;;6.60;99.90;;;5.81;100.00;96955.13;5016561;28;3465;-70
2023/12/31 02:36:59;;;;;;;;;;;6.60;99.90;;;5.86;100.00;96948.09;5013961;28;1606;-69
2023/12/31 02:39:26;;;;;;;;;;;6.60;99.90;;;5.75;100.00;96947.66;5018460;28;1438;-69
2023/12/31 02:41:53;;;;;;;;;;;6.60;99.90;;;5.70;100.00;96931.47;5018301;28;1469;-69
2023/12/31 02:44:20;;;;;;;;;;;6.60;99.90;;;5.67;100.00;96911.84;5019064;28;1296;-69
2023/12/31 02:46:47;;;;;;;;;;;6.50;99.90;;;5.70;100.00;96914.28;5017342;28;1983;-68
2023/12/31 02:49:14;;;;;;;;;;;6.60;99.90;;;5.80;100.00;96907.13;5019163;28;1061;-68
2023/12/31 02:51:41;;;;;;;;;;;6.50;99.90;;;5.75;100.00;96914.16;5016362;28;1747;-69
2023/12/31 02:54:07;;;;;;;;;;;6.50;99.90;;;5.80;100.00;96909.69;5034584;28;1425;-69
2023/12/31 02:56:41;;;;;;;;;;;6.60;99.90;;;5.73;100.00;96903.91;5016525;28;5217;-68
2023/12/31 02:59:08;;;;;;;;;;;6.60;99.90;;;5.84;100.00;96895.81;5011418;28;1536;-69
2023/12/31 03:01:36;;;;;;;;;;;6.60;99.90;;;5.77;100.00;96900.34;5015188;28;1971;-68
2023/12/31 03:04:03;;;;;;;;;;;6.50;99.90;;;5.70;100.00;96893.69;5013614;28;1493;-69
2023/12/31 03:06:30;;;;;;;;;;;6.50;99.90;;;5.80;100.00;96897.66;5014104;28;1480;-69
2023/12/31 03:09:01;;;;;;;;;;;6.50;99.90;;;5.83;100.00;96894.13;5017186;28;1980;-69
2023/12/31 03:11:28;;;;;;;;;;;6.60;99.90;;;5.74;100.00;96884.16;5019594;28;1283;-69
2023/12/31 03:13:55;;;;;;;;;;;6.60;99.90;;;5.96;100.00;96890.25;5015810;28;1310;-69
2023/12/31 03:16:24;;;;;;;;;;;6.60;99.90;;;5.95;100.00;96877.44;5036313;28;3211;-69
2023/12/31 03:18:52;;;;;;;;;;;6.60;99.90;;;5.93;100.00;96874.91;5032180;28;1769;-69
2023/12/31 03:21:22;;;;;;;;;;;6.60;99.90;;;6.04;100.00;96877.09;5015791;28;1282;-69
2023/12/31 03:23:49;;;;;;;;;;;6.60;99.90;;;6.00;100.00;96871.22;5019641;28;1379;-69
2023/12/31 03:26:16;;;;;;;;;;;6.70;99.90;;;6.03;100.00;96858.22;5018059;28;1433;-69
2023/12/31 03:28:43;;;;;;;;;;;6.80;99.90;;;6.01;100.00;96851.47;5013727;28;2094;-69
2023/12/31 03:31:10;;;;;;;;;;;6.80;99.90;;;6.12;100.00;96853.66;5017453;28;1436;-69
2023/12/31 03:33:37;;;;;;;;;;;6.80;99.90;;;6.23;100.00;96854.09;5016878;28;1524;-69
2023/12/31 03:36:05;;;;;;;;;;;6.80;99.90;;;6.13;100.00;96843.28;5017460;28;1392;-69
2023/12/31 03:38:32;;;;;;;;;;;6.90;99.90;;;6.13;100.00;96837.28;5016506;28;1443;-69
2023/12/31 03:40:59;;;;;;;;;;;6.90;99.90;;;6.19;100.00;96837.06;5015370;28;1398;-69
2023/12/31 03:43:26;;;;;;;;;;;6.90;99.90;;;6.10;100.00;96827.09;5017370;28;2062;-69
2023/12/31 03:45:53;;;;;;;;;;;6.90;99.90;;;6.22;100.00;96834.38;5037471;28;1493;-69
2023/12/31 03:48:20;;;;;;;;;;;6.90;99.90;;;6.14;100.00;96826.94;5018229;28;1906;-69
2023/12/31 03:50:47;;;;;;;;;;;6.90;99.90;;;6.16;100.00;96821.69;5036161;28;1414;-69
2023/12/31 03:53:14;;;;;;;;;;;6.90;99.90;;;6.26;100.00;96820.47;5020730;28;1495;-69
2023/12/31 03:55:41;;;;;;;;;;;7.00;99.90;;;6.33;100.00;96821.91;5022482;28;1490;-69
2023/12/31 03:58:08;;;;;;;;;;;7.00;99.90;;;6.32;100.00;96816.81;5019450;28;5132;-70
2023/12/31 04:00:35;;;;;;;;;;;7.10;99.90;;;6.47;100.00;96808.50;5019563;28;1408;-71
2023/12/31 04:03:03;;;;;;;;;;;7.10;99.90;;;6.57;100.00;96798.66;5020875;28;1407;-69
2023/12/31 04:05:30;;;;;;;;;;;7.20;99.90;;;6.52;100.00;96787.69;5020224;28;1396;-69
2023/12/31 04:07:58;;;;;;;;;;;7.30;99.90;;;6.49;100.00;96786.91;5020180;28;1906;-69
2023/12/31 04:10:25;;;;;;;;;;;7.30;99.90;;;6.57;100.00;96784.06;5017606;28;1771;-69
2023/12/31 04:12:52;;;;;;;;;;;7.30;99.90;;;6.70;100.00;96776.66;5019182;28;2027;-69
2023/12/31 04:15:19;;;;;;;;;;;7.40;99.90;;;6.70;100.00;96776.66;5020391;28;1515;-69
2023/12/31 04:17:46;;;;;;;;;;;7.50;99.90;;;6.70;100.00;96762.06;5035846;28;1717;-69
2023/12/31 04:20:14;;;;;;;;;;;7.50;99.90;;;6.76;100.00;96750.63;5018799;28;1364;-69
2023/12/31 04:22:40;;;;;;;;;;;7.50;99.90;;;6.72;100.00;96743.91;5022405;28;1545;-69
2023/12/31 04:25:08;;;;;;;;;;;7.50;99.90;;;6.74;100.00;96724.06;5022690;28;2154;-69
2023/12/31 04:27:38;;;;;;;;;;;7.60;99.90;;;6.80;100.00;96726.41;5020849;28;1906;-69
2023/12/31 04:30:08;;;;;;;;;;;7.60;99.90;;;6.87;100.00;96711.50;5018747;28;1317;-70
2023/12/31 04:32:36;;;;;;;;;;;7.60;99.90;;;6.82;100.00;96703.97;5006006;28;1515;-69
2023/12/31 04:35:03;;;;;;;;;;;7.60;99.90;;;6.98;100.00;96709.31;5020109;28;1387;-69
2023/12/31 04:37:32;;;;;;;;;;;7.60;99.90;;;6.87;100.00;96698.63;5019093;28;1371;-69
2023/12/31 04:39:59;;;;;;;;;;;7.70;99.90;;;6.98;100.00;96701.59;5019588;28;1395;-69
2023/12/31 04:42:25;;;;;;;;;;;7.70;99.90;;;6.91;100.00;96697.56;5020549;28;1481;-70
2023/12/31 04:44:52;;;;;;;;;;;7.70;99.90;;;6.81;100.00;96693.69;5020762;28;1408;-69
2023/12/31 04:47:20;;;;;;;;;;;7.70;99.90;;;6.88;100.00;96680.47;5018368;28;1981;-69
2023/12/31 04:49:47;;;;;;;;;;;7.70;99.90;;;6.91;100.00;96676.91;5022353;28;1356;-68
2023/12/31 04:52:14;;;;;;;;;;;7.60;99.90;;;6.99;100.00;96671.44;5020023;28;1420;-69
2023/12/31 04:54:41;;;;;;;;;;;7.70;99.90;;;7.05;100.00;96666.88;5017394;28;3263;-69
2023/12/31 04:57:08;;;;;;;;;;;7.80;99.90;;;7.21;100.00;96658.47;5021131;28;5459;-69
2023/12/31 04:59:36;;;;;;;;;;;7.90;99.90;;;7.15;100.00;96648.41;5020862;28;1391;-69
2023/12/31 05:02:03;;;;;;;;;;;8.00;99.90;;;7.21;100.00;96648.16;5022117;28;1395;-69
2023/12/31 05:04:30;;;;;;;;;;;8.00;99.90;;;7.25;100.00;96644.50;5021331;28;1442;-69
2023/12/31 05:06:58;;;;;;;;;;;7.90;99.90;;;7.25;100.00;96641.91;5020894;28;1482;-69
2023/12/31 05:09:25;;;;;;;;;;;8.00;99.90;;;7.29;100.00;96641.72;5020057;28;2439;-69
2023/12/31 05:11:52;;;;;;;;;;;8.00;99.90;;;7.26;100.00;96635.88;5019365;28;1525;-69
2023/12/31 05:14:22;;;;;;;;;;;8.00;99.90;;;7.24;100.00;96624.78;5017409;28;1323;-68
2023/12/31 05:16:48;;;;;;;;;;;8.00;99.90;;;7.57;100.00;96635.31;5019308;28;1372;-69
2023/12/31 05:19:15;;;;;;;;;;;8.10;99.90;;;7.73;100.00;96610.47;5036652;28;1716;-69
2023/12/31 05:21:42;;;;;;;;;;;8.30;99.90;;;7.79;100.00;96624.00;5019364;28;1987;-69
2023/12/31 05:24:09;;;;;;;;;;;8.40;99.90;;;7.89;100.00;96617.47;5018693;28;1473;-69
2023/12/31 05:26:36;;;;;;;;;;;8.50;99.90;;;7.81;100.00;96604.09;5016418;28;1416;-69
2023/12/31 05:29:03;;;;;;;;;;;8.60;99.90;;;7.75;100.00;96610.38;5020997;28;2018;-69
2023/12/31 05:31:30;;;;;;;;;;;8.50;99.90;;;7.84;100.00;96609.13;5017886;28;1399;-69
2023/12/31 05:33:57;;;;;;;;;;;8.50;99.90;;;7.77;100.00;96618.06;5017647;28;1424;-69
2023/12/31 05:36:24;;;;;;;;;;;8.60;99.90;;;8.01;100.00;96621.25;5016394;28;3183;-69
2023/12/31 05:38:51;;;;;;;;;;;8.60;99.90;;;8.02;100.00;96628.91;5019398;28;1451;-70
2023/12/31 05:41:18;;;;;;;;;;;8.70;99.90;;;7.90;100.00;96612.25;5021659;28;1488;-69
2023/12/31 05:43:45;;;;;;;;;;;8.70;99.90;;;7.85;100.00;96582.38;5019603;28;1531;-68
2023/12/31 05:46:12;;;;;;;;;;;8.60;99.90;;;7.99;100.00;96566.22;5016321;28;1372;-69
2023/12/31 05:48:41;;;;;;;;;;;8.80;99.90;;;8.13;100.00;96603.38;5019473;28;1898;-69
2023/12/31 05:51:09;;;;;;;;;;;8.80;99.90;;;8.04;100.00;96606.41;5019399;28;1987;-69
2023/12/31 05:53:36;;;;;;;;;;;8.80;99.90;;;8.09;100.00;96603.59;5016554;28;1422;-69
2023/12/31 05:56:03;;;;;;;;;;;8.80;99.90;;;8.11;100.00;96596.63;5016111;28;1609;-69
2023/12/31 05:58:30;;;;;;;;;;;8.90;99.90;;;8.02;100.00;96594.47;5016547;28;1665;-69
2023/12/31 06:00:58;;;;;;;;;;;8.70;99.90;;;8.12;100.00;96588.81;5018047;28;1440;-69
2023/12/31 06:03:28;;;;;;;;;;;8.80;99.90;;;7.95;100.00;96587.00;5017667;28;1967;-69
2023/12/31 06:05:55;;;;;;;;;;;8.70;99.90;;;7.90;100.00;96577.81;5018675;28;1355;-70
2023/12/31 06:08:22;;;;;;;;;;;8.70;99.90;;;7.99;100.00;96592.06;5015333;28;1995;-70
2023/12/31 06:10:49;;;;;;;;;;;8.80;99.90;;;7.93;100.00;96580.25;5017167;28;1478;-70
2023/12/31 06:13:16;;;;;;;;;;;8.80;99.90;;;8.02;100.00;96573.81;5022175;28;1587;-69
2023/12/31 06:15:43;;;;;;;;;;;8.70;99.90;;;8.02;100.00;96568.63;5020967;28;1682;-69
2023/12/31 06:18:11;;;;;;;;;;;8.80;99.90;;;8.04;100.00;96578.00;5018399;28;2938;-69
2023/12/31 06:20:38;;;;;;;;;;;8.70;99.90;;;7.96;100.00;96567.22;5033548;28;1531;-70
2023/12/31 06:23:05;;;;;;;;;;;8.80;99.90;;;8.01;100.00;96567.81;5021261;28;1427;-69
2023/12/31 06:25:32;;;;;;;;;;;8.70;99.90;;;7.90;100.00;96565.72;5016189;28;1476;-69
2023/12/31 06:27:58;;;;;;;;;;;8.60;99.90;;;7.82;100.00;96564.44;5018890;28;1902;-69
2023/12/31 06:30:25;;;;;;;;;;;8.70;99.90;;;7.74;100.00;96564.81;5018908;28;1831;-69
2023/12/31 06:32:52;;;;;;;;;;;8.60;99.90;;;7.77;100.00;96566.41;5016616;28;2066;-69
2023/12/31 06:35:20;;;;;;;;;;;8.50;99.90;;;7.78;100.00;96557.72;5020041;28;1389;-68
2023/12/31 06:37:46;;;;;;;;;;;8.50;99.90;;;7.80;100.00;96551.59;5015337;28;1516;-69
2023/12/31 06:40:13;;;;;;;;;;;8.60;99.90;;;7.84;100.00;96554.84;5015835;28;1515;-69
2023/12/31 06:42:40;;;;;;;;;;;8.60;99.90;;;7.77;100.00;96558.66;5016091;28;1426;-69
2023/12/31 06:45:08;;;;;;;;;;;8.60;99.90;;;7.83;100.00;96548.03;5018334;28;1778;-69
2023/12/31 06:47:35;;;;;;;;;;;8.60;99.90;;;7.82;100.00;96562.66;5015559;28;2074;-69
2023/12/31 06:50:02;;;;;;;;;;;8.60;99.90;;;7.95;100.00;96560.34;5018116;28;1902;-70
2023/12/31 06:52:32;;;;;;;;;;;8.60;99.90;;;7.81;100.00;96542.94;5016711;28;1423;-69
2023/12/31 06:54:59;;;;;;;;;;;8.60;99.90;;;7.86;100.00;96550.44;5018102;28;1411;-69
2023/12/31 06:57:26;;;;;;;;;;;8.60;99.90;;;7.87;100.00;96547.81;5013922;28;5015;-69
2023/12/31 06:59:52;;;;;;;;;;;8.70;99.90;;;7.88;100.00;96546.06;5016591;28;3093;-69
2023/12/31 07:02:20;;;;;;;;;;;8.70;99.90;;;7.80;100.00;96536.09;5017817;28;1429;-69
2023/12/31 07:04:47;;;;;;;;;;;8.60;99.90;;;7.88;100.00;96540.88;5014337;28;1376;-69
2023/12/31 07:07:13;;;;;;;;;;;8.70;99.90;;;7.83;100.00;96548.84;5017822;28;1324;-69
2023/12/31 07:09:40;;;;;;;;;;;8.70;99.90;;;7.90;100.00;96532.16;5018578;28;1989;-69
2023/12/31 07:12:07;;;;;;;;;;;8.70;99.90;;;7.88;100.00;96536.56;5015351;28;1460;-69
2023/12/31 07:14:34;;;;;;;;;;;8.60;99.90;;;7.88;100.00;96543.47;5017641;28;2011;-68
2023/12/31 07:17:01;;;;;;;;;;;8.60;99.90;;;8.03;100.00;96539.28;5017889;28;1432;-69
2023/12/31 07:19:28;;;;;;;;;;;8.70;99.90;;;8.07;100.00;96517.56;5019240;28;1200;-69
2023/12/31 07:21:55;;;;;;;;;;;8.80;99.90;;;8.09;100.00;96519.16;5020403;28;1407;-69
2023/12/31 07:24:22;;;;;;;;;;;8.90;99.90;;;8.16;100.00;96522.28;5019535;28;1528;-69
2023/12/31 07:26:49;;;;;;;;;;;8.90;99.90;;;8.19;100.00;96516.97;5024347;28;1444;-70
2023/12/31 07:29:16;;;;;;;;;;;8.90;99.90;;;8.23;100.00;96527.97;5021635;28;1910;-69
2023/12/31 07:31:43;;;;;;;;;;;8.90;99.90;;;8.20;100.00;96534.13;5023504;28;1509;-69
2023/12/31 07:34:10;;;;;;;;;;;8.90;99.90;;;8.25;100.00;96503.72;5019328;28;1493;-69
2023/12/31 07:36:37;;;;;;;;;;;9.00;99.90;;;8.28;100.00;96516.50;5019549;28;1367;-69
2023/12/31 07:39:04;;;;;;;;;;;9.00;99.90;;;8.20;100.00;96523.78;5022763;28;1304;-69
2023/12/31 07:41:31;;;;;;;;;;;9.00;99.90;;;8.21;100.00;96520.31;5021452;28;1611;-68
2023/12/31 07:43:58;;;;;;;;;;;9.00;99.90;;;8.13;100.00;96504.34;5021164;28;3188;-69
2023/12/31 07:46:25;;;;;;;;;;;9.00;99.90;;;8.13;100.00;96506.94;5022067;28;1425;-68
2023/12/31 07:48:52;;;;;;;;;;;8.90;99.90;;;8.13;100.00;96504.34;5019558;28;1888;-69
2023/12/31 07:51:19;;;;;;;;;;;8.90;99.90;;;8.14;100.00;96514.63;5021926;28;1209;-69
2023/12/31 07:53:46;;;;;;;;;;;8.90;99.90;;;8.15;100.00;96512.84;5021898;28;1512;-69
2023/12/31 07:56:13;;;;;;;;;;;8.90;99.90;;;8.25;100.00;96503.72;5018954;28;1431;-69
2023/12/31 07:58:40;;;;;;;;;;;8.90;99.90;;;8.22;100.00;96503.03;5021075;28;5130;-69
2023/12/31 08:01:07;;;;;;;;;;;9.00;99.90;;;8.20;100.00;96503.13;5020527;28;1411;-69
2023/12/31 08:03:34;;;;;;;;;;;8.90;99.90;;;8.19;100.00;96496.28;5020020;28;1452;-69
2023/12/31 08:06:03;;;;;;;;;;;9.00;99.90;;;8.31;100.00;96500.00;5024020;28;1419;-69
2023/12/31 08:08:33;;;;;;;;;;;9.00;99.90;;;8.43;100.00;96504.56;5017628;28;1981;-69
2023/12/31 08:11:00;;;;;;;;;;;9.10;99.90;;;8.07;100.00;96489.97;5023299;28;1464;-69
2023/12/31 08:13:34;;;;;;;;;;;9.00;99.90;;;7.85;100.00;96502.28;5015233;28;1594;-69
2023/12/31 08:16:01;;;;;;;;;;;8.90;99.90;;;7.82;100.00;96507.59;5019962;28;1384;-69
2023/12/31 08:18:28;;;;;;;;;;;8.70;99.90;;;7.85;100.00;96525.53;5019345;28;1517;-68
2023/12/31 08:20:55;;;;;;;;;;;8.60;99.90;;;7.91;100.00;96527.81;5018624;28;1715;-69
2023/12/31 08:23:22;;;;;;;;;;;8.60;99.90;;;8.00;100.00;96537.69;5021992;28;1406;-69
2023/12/31 08:25:48;;;;;;;;;;;8.70;99.90;;;8.05;100.00;96527.13;5019622;28;3220;-69
2023/12/31 08:28:15;;;;;;;;;;;8.70;99.90;;;7.84;100.00;96522.09;5018144;28;1903;-69
2023/12/31 08:30:43;;;;;;;;;;;8.80;99.90;;;7.84;100.00;96519.50;5021919;28;1661;-69
2023/12/31 08:33:10;;;;;;;;;;;8.70;99.90;;;7.86;100.00;96529.78;5019429;28;1434;-69
2023/12/31 08:35:41;;;;;;;;;;;8.70;99.90;;;7.90;100.00;96539.91;5018780;28;1582;-70
2023/12/31 08:38:08;;;;;;;;;;;8.70;99.90;;;7.94;100.00;96538.00;5018851;28;2003;-70
2023/12/31 08:40:35;;;;;;;;;;;8.70;99.90;;;8.11;100.00;96524.25;5017546;28;1217;-69
2023/12/31 08:43:03;;;;;;;;;;;8.80;99.90;;;8.02;100.00;96520.38;5019095;28;1451;-70
2023/12/31 08:45:32;;;;;;;;;;;8.80;99.90;;;8.14;100.00;96537.88;5019781;28;1462;-69
2023/12/31 08:47:59;;;;;;;;;;;8.90;99.90;;;8.11;100.00;96519.09;5018003;28;1554;-69
2023/12/31 08:50:26;;;;;;;;;;;8.90;99.90;;;8.22;100.00;96513.38;5018594;28;1934;-70
2023/12/31 08:52:54;;;;;;;;;;;9.00;99.90;;;8.28;100.00;96513.06;5017955;28;1933;-68
2023/12/31 08:55:21;;;;;;;;;;;9.00;99.90;;;8.27;100.00;96519.97;5021949;28;1356;-69
2023/12/31 08:57:48;;;;;;;;;;;9.10;99.90;;;8.24;100.00;96527.06;5020273;28;5126;-70
2023/12/31 09:00:17;;;;;;;;;;;9.10;99.90;;;8.26;100.00;96540.75;5019826;28;1415;-69
2023/12/31 09:02:44;;;;;;;;;;;9.00;99.90;;;8.21;100.00;96522.91;5018682;28;1384;-69
2023/12/31 09:05:11;;;;;;;;;;;9.00;99.90;;;8.20;100.00;96528.13;5019471;28;1486;-69
2023/12/31 09:07:42;;;;;;;;;;;9.00;99.90;;;8.14;100.00;96529.25;5019205;28;1400;-69
2023/12/31 09:10:09;;;;;;;;;;;9.00;99.90;;;8.25;100.00;96523.56;5017296;28;1914;-69
2023/12/31 09:12:36;;;;;;;;;;;9.00;99.90;;;8.13;100.00;96536.19;5020172;28;1352;-69
2023/12/31 09:15:05;;;;;;;;;;;9.00;99.90;;;8.10;100.00;96543.28;5020989;28;1391;-69
2023/12/31 09:17:32;;;;;;;;;;;9.00;99.90;;;8.08;100.00;96548.50;5017065;28;1836;-69
2023/12/31 09:20:05;;;;;;;;;;;8.90;99.90;;;8.18;100.00;96579.91;5022167;28;1431;-68
2023/12/31 09:22:33;;;;;;;;;;;8.90;99.90;;;8.11;100.00;96550.94;5019836;28;3408;-68
2023/12/31 09:25:00;;;;;;;;;;;8.90;99.90;;;8.20;100.00;96564.31;5021999;28;1387;-68
2023/12/31 09:27:27;;;;;;;;;;;8.90;99.90;;;8.19;100.00;96558.31;5022174;28;1466;-69
2023/12/31 09:29:54;;;;;;;;;;;8.90;99.90;;;8.12;100.00;96562.97;5017828;28;2009;-68
2023/12/31 09:32:20;;;;;;;;;;;8.90;99.90;;;8.14;100.00;96566.31;5015696;28;1568;-69
2023/12/31 09:34:48;;;;;;;;;;;9.00;99.90;;;8.15;100.00;96572.31;5020847;28;2059;-69
2023/12/31 09:37:19;;;;;;;;;;;9.00;99.90;;;8.22;100.00;96559.91;5018391;28;1423;-69
2023/12/31 09:39:47;;;;;;;;;;;9.00;99.90;;;8.11;100.00;96561.28;5021333;28;1592;-69
2023/12/31 09:42:16;;;;;;;;;;;8.90;99.90;;;8.10;100.00;96571.69;5017203;28;1360;-69
2023/12/31 09:44:44;;;;;;;;;;;8.90;99.90;;;8.15;100.00;96574.88;5019185;28;1406;-69
2023/12/31 09:47:11;;;;;;;;;;;8.90;99.90;;;8.16;100.00;96587.75;5031432;28;1417;-69
2023/12/31 09:49:41;;;;;;;;;;;8.90;99.90;;;8.11;100.00;96578.53;5015681;28;2026;-68
2023/12/31 09:52:09;;;;;;;;;;;8.90;99.90;;;8.08;100.00;96578.69;5015689;28;1497;-68
2023/12/31 09:54:38;;;;;;;;;;;8.90;99.90;;;8.15;100.00;96591.22;5014908;28;1420;-68
2023/12/31 09:57:06;;;;;;;;;;;8.90;99.90;;;8.22;100.00;96598.69;5017843;28;5052;-70
2023/12/31 09:59:33;;;;;;;;;;;8.90;99.90;;;8.24;100.00;96596.88;5015341;28;1483;-71
2023/12/31 10:02:04;;;;;;;;;;;8.90;99.90;;;8.24;100.00;96595.13;5017046;28;1396;-71
2023/12/31 10:04:32;;;;;;;;;;;8.90;99.90;;;8.48;100.00;96593.09;5015929;28;3160;-70
2023/12/31 10:07:00;;;;;;;;;;;9.10;99.90;;;8.51;100.00;96615.41;5018541;28;1465;-68
2023/12/31 10:09:28;;;;;;;;;;;9.20;99.90;;;8.56;100.00;96603.91;5015938;28;1895;-70
2023/12/31 10:12:00;;;;;;;;;;;9.20;99.90;;;8.52;100.00;96586.84;5016974;28;1436;-71
2023/12/31 10:14:28;;;;;;;;;;;9.30;99.90;;;8.46;100.00;96544.94;5018776;28;1328;-69
2023/12/31 10:16:55;;;;;;;;;;;9.20;99.90;;;8.45;100.00;96585.50;5021166;28;2229;-69
2023/12/31 10:19:23;;;;;;;;;;;9.20;99.90;;;8.41;100.00;96617.56;5018393;28;1411;-71
2023/12/31 10:21:50;;;;;;;;;;;9.20;99.90;;;8.44;100.00;96639.84;5016494;28;1477;-69
2023/12/31 10:24:29;;;;;;;;;;;9.20;99.90;;;8.30;100.00;96586.22;5018954;28;1466;-69
2023/12/31 10:26:57;;;;;;;;;;;9.10;99.90;;;8.32;100.00;96597.31;5004752;28;1394;-71
2023/12/31 10:29:24;;;;;;;;;;;9.10;99.90;;;8.30;100.00;96594.81;5017185;28;1891;-71
2023/12/31 10:31:52;;;;;;;;;;;9.10;99.90;;;8.18;100.00;96621.25;5018851;28;1999;-71
2023/12/31 10:34:19;;;;;;;;;;;9.00;99.90;;;8.12;100.00;96604.31;5016010;28;1446;-69
2023/12/31 10:36:47;;;;;;;;;;;8.90;99.90;;;8.09;100.00;96619.94;5015544;28;1475;-69
2023/12/31 10:39:26;;;;;;;;;;;8.90;99.90;;;7.97;100.00;96605.88;5012125;28;1041;-69
2023/12/31 10:41:58;;;;;;;;;;;8.80;99.90;;;7.83;100.00;96602.28;5018651;28;1488;-70
2023/12/31 10:44:26;;;;;;;;;;;8.70;99.90;;;7.84;100.00;96622.03;5019665;28;1459;-69
2023/12/31 10:46:57;;;;;;;;;;;8.70;99.90;;;7.79;100.00;96618.84;5018939;28;1409;-70
2023/12/31 10:49:27;;;;;;;;;;;8.60;99.90;;;7.65;100.00;96604.81;5004478;28;5260;-69
2023/12/31 10:51:54;;;;;;;;;;;8.60;99.90;;;7.69;100.00;96606.34;5005430;28;4794;-70
2023/12/31 10:54:36;;;;;;;;;;;8.50;99.90;;;7.68;100.00;96607.25;5024947;28;1423;-69
2023/12/31 10:57:05;;;;;;;;;;;8.50;99.90;;;7.59;100.00;96604.25;5020254;28;5122;-70
2023/12/31 10:59:34;;;;;;;;;;;8.40;99.90;;;7.38;100.00;96590.59;5020183;28;3259;-69
2023/12/31 11:02:05;;;;;;;;;;;8.30;99.90;;;7.20;100.00;96605.16;5024540;28;1891;-69
2023/12/31 11:04:32;;;;;;;;;;;8.10;99.90;;;7.09;100.00;96605.63;5020838;28;1484;-70
2023/12/31 11:07:03;;;;;;;;;;;7.90;99.90;;;7.09;100.00;96606.50;5035949;28;1469;-69
2023/12/31 11:09:32;;;;;;;;;;;7.90;99.90;;;7.11;100.00;96634.78;5016525;28;1981;-68
2023/12/31 11:11:59;;;;;;;;;;;7.80;99.90;;;7.10;100.00;96630.53;5019165;28;1647;-69
2023/12/31 11:14:31;;;;;;;;;;;7.80;99.90;;;6.99;100.00;96646.47;5018780;28;1991;-69
2023/12/31 11:17:21;;;;;;;;;;;7.80;99.90;;;6.95;100.00;96644.94;5022572;28;2137;-69
2023/12/31 11:20:27;;;;;;;;;;;7.70;99.90;;;6.84;100.00;96649.72;5021300;28;1415;-69
2023/12/31 11:23:29;;;;;;;;;;;7.70;99.90;;;6.83;100.00;96635.16;5020112;28;1470;-69
2023/12/31 11:25:57;;;;;;;;;;;7.60;99.90;;;6.78;100.00;96652.56;5019809;28;1491;-69
2023/12/31 11:28:27;;;;;;;;;;;7.60;99.90;;;6.71;100.00;96623.63;5020014;28;1423;-69
2023/12/31 11:30:58;;;;;;;;;;;7.50;99.90;;;6.74;100.00;96646.69;5021715;28;1934;-69
2023/12/31 11:33:35;;;;;;;;;;;7.50;99.90;;;6.70;100.00;96656.31;5020753;28;1489;-69
2023/12/31 11:36:07;;;;;;;;;;;7.50;99.90;;;6.63;100.00;96644.56;5022176;28;1376;-69
2023/12/31 11:39:00;;;;;;;;;;;7.40;99.90;;;6.61;100.00;96656.66;5018734;28;1652;-69